Time;durP1;ratioP1;P1;durP2;ratioP2;P2;SDS_P1;SDS_P2;PMS_P1;PMS_P2;Temp;Humidity;BMP_temperature;BMP_pressure;BME280_temperature;BME280_humidity;BME280_pressure;Samples;Min_cycle;Max_cycle;Signal;HPM_P1;HPM_P2
2023/08/20 00:02:14;;;;;;;156.40;147.77;;;;;;;18.30;100.00;102061.47;5102915;28;20490;-39
2023/08/20 00:04:47;;;;;;;157.13;146.80;;;;;;;18.29;100.00;102073.31;5102484;28;20461;-39
2023/08/20 00:07:18;;;;;;;172.70;161.77;;;;;;;18.25;100.00;102062.94;5103768;28;20532;-40
2023/08/20 00:09:47;;;;;;;163.97;155.30;;;;;;;18.22;100.00;102066.06;5103258;28;20429;-41
2023/08/20 00:12:15;;;;;;;170.37;161.23;;;;;;;18.22;100.00;102057.13;5101210;28;20468;-41
2023/08/20 00:14:58;;;;;;;164.43;155.93;;;;;;;18.24;100.00;102061.28;5102896;28;20512;-39
2023/08/20 00:17:27;;;;;;;163.70;155.17;;;;;;;18.23;100.00;102067.72;5103155;28;20455;-41
2023/08/20 00:19:55;;;;;;;159.90;149.93;;;;;;;18.25;100.00;102073.72;5101840;28;20480;-43
2023/08/20 00:22:24;;;;;;;164.17;154.07;;;;;;;18.28;100.00;102068.97;5102994;28;20425;-39
2023/08/20 00:24:54;;;;;;;164.63;154.73;;;;;;;18.29;100.00;102073.31;5102632;28;20685;-40
2023/08/20 00:27:22;;;;;;;161.57;152.50;;;;;;;18.30;100.00;102066.88;5104007;28;20457;-38
2023/08/20 00:29:50;;;;;;;160.47;151.20;;;;;;;18.32;100.00;102072.88;5103194;28;20421;-39
2023/08/20 00:32:18;;;;;;;164.30;156.27;;;;;;;18.32;100.00;102078.28;5102334;28;20556;-38
2023/08/20 00:34:45;;;;;;;164.93;156.60;;;;;;;18.31;100.00;102084.75;5102133;28;20541;-41
2023/08/20 00:37:13;;;;;;;175.40;165.87;;;;;;;18.32;100.00;102089.91;5101294;28;20445;-40
2023/08/20 00:39:41;;;;;;;174.97;164.80;;;;;;;18.31;100.00;102082.84;5101244;28;20482;-42
2023/08/20 00:42:10;;;;;;;172.87;163.37;;;;;;;18.33;100.00;102086.19;5101108;28;20568;-42
2023/08/20 00:44:38;;;;;;;177.80;167.77;;;;;;;18.29;100.00;102094.91;5100325;28;20540;-41
2023/08/20 00:47:06;;;;;;;170.50;162.17;;;;;;;18.27;100.00;102097.00;5101375;28;20921;-40
2023/08/20 00:49:35;;;;;;;174.13;164.53;;;;;;;18.26;100.00;102101.56;5097893;28;20504;-38
2023/08/20 00:52:03;;;;;;;188.10;177.70;;;;;;;18.24;100.00;102107.19;5089603;28;20425;-39
2023/08/20 00:54:33;;;;;;;182.77;172.13;;;;;;;18.21;100.00;102101.41;5093704;28;20447;-41
2023/08/20 00:57:02;;;;;;;174.13;165.30;;;;;;;18.20;100.00;102100.56;5093767;28;20445;-41
2023/08/20 00:59:33;;;;;;;172.77;164.30;;;;;;;18.19;100.00;102101.59;5092416;28;20464;-39
2023/08/20 01:02:02;;;;;;;178.53;168.97;;;;;;;18.18;100.00;102099.94;5093010;28;20468;-41
2023/08/20 01:04:31;;;;;;;174.00;165.43;;;;;;;18.17;100.00;102092.88;5093498;28;21043;-39
2023/08/20 01:07:09;;;;;;;175.93;168.03;;;;;;;18.18;100.00;102089.16;5091784;28;20479;-38
2023/08/20 01:09:49;;;;;;;180.83;170.90;;;;;;;18.15;100.00;102097.69;5092299;28;20511;-40
2023/08/20 01:12:18;;;;;;;173.50;165.13;;;;;;;18.10;100.00;102094.78;5091515;28;20957;-40
2023/08/20 01:14:47;;;;;;;176.43;168.00;;;;;;;18.06;100.00;102090.03;5093164;28;20459;-39
2023/08/20 01:17:15;;;;;;;173.83;165.97;;;;;;;18.00;100.00;102096.28;5093306;28;20535;-40
2023/08/20 01:19:43;;;;;;;177.47;170.00;;;;;;;17.94;100.00;102095.25;5093827;28;20433;-38
2023/08/20 01:22:41;;;;;;;173.00;165.63;;;;;;;17.93;100.00;102104.38;5093808;28;20429;-37
2023/08/20 01:25:18;;;;;;;175.13;166.87;;;;;;;17.87;100.00;102099.00;5093504;28;20487;-40
2023/08/20 01:27:59;;;;;;;169.43;162.23;;;;;;;17.80;100.00;102096.31;5092988;28;20540;-43
2023/08/20 01:30:28;;;;;;;184.67;176.40;;;;;;;17.74;100.00;102101.75;5093955;28;20533;-40
2023/08/20 01:32:57;;;;;;;168.20;161.10;;;;;;;17.69;100.00;102107.75;5092507;28;20556;-38
2023/08/20 01:35:26;;;;;;;176.40;169.13;;;;;;;17.64;100.00;102099.47;5093343;28;20973;-39
2023/08/20 01:37:53;;;;;;;171.37;164.63;;;;;;;17.59;100.00;102101.97;5093556;28;20787;-39
2023/08/20 01:40:21;;;;;;;172.73;165.37;;;;;;;17.53;100.00;102095.50;5092832;28;20439;-39
2023/08/20 01:42:49;;;;;;;178.60;170.03;;;;;;;17.48;100.00;102094.47;5092588;28;20946;-38
2023/08/20 01:45:18;;;;;;;175.03;167.10;;;;;;;17.42;100.00;102100.69;5093086;28;20492;-38
2023/08/20 01:47:47;;;;;;;167.40;160.43;;;;;;;17.36;100.00;102101.53;5092504;28;20845;-38
2023/08/20 01:50:14;;;;;;;173.43;165.93;;;;;;;17.31;100.00;102099.47;5093037;28;20842;-38
2023/08/20 01:52:42;;;;;;;161.43;154.53;;;;;;;17.27;100.00;102102.78;5091932;28;20437;-38
2023/08/20 01:55:10;;;;;;;164.97;158.20;;;;;;;17.24;100.00;102103.19;5092532;28;20599;-38
2023/08/20 01:57:37;;;;;;;169.17;161.17;;;;;;;17.21;100.00;102109.84;5091352;28;20481;-40
2023/08/20 02:00:08;;;;;;;170.00;162.53;;;;;;;17.21;100.00;102101.75;5092461;28;20429;-38
2023/08/20 02:02:35;;;;;;;168.43;160.30;;;;;;;17.23;100.00;102098.84;5091641;28;20494;-38
2023/08/20 02:05:05;;;;;;;168.30;160.60;;;;;;;17.25;100.00;102099.47;5092709;28;20457;-41
2023/08/20 02:07:33;;;;;;;158.93;151.77;;;;;;;17.26;100.00;102099.28;5092537;28;20449;-38
2023/08/20 02:10:02;;;;;;;158.33;151.60;;;;;;;17.29;100.00;102084.56;5092535;28;20529;-40
2023/08/20 02:12:29;;;;;;;155.07;148.27;;;;;;;17.34;100.00;102101.75;5090823;28;20433;-38
2023/08/20 02:14:57;;;;;;;165.60;157.90;;;;;;;17.36;100.00;102090.75;5092369;28;20556;-39
2023/08/20 02:17:25;;;;;;;159.87;152.07;;;;;;;17.41;100.00;102090.97;5091763;28;20445;-39
2023/08/20 02:19:53;;;;;;;181.37;170.43;;;;;;;17.42;100.00;102088.06;5091565;28;20436;-38
2023/08/20 02:22:22;;;;;;;164.67;156.73;;;;;;;17.43;100.00;102083.50;5090914;28;21129;-45
2023/08/20 02:24:49;;;;;;;170.30;159.87;;;;;;;17.42;100.00;102087.22;5091648;28;20457;-38
2023/08/20 02:27:17;;;;;;;176.90;168.93;;;;;;;17.46;100.00;102099.25;5092149;28;20459;-40
2023/08/20 02:29:45;;;;;;;167.70;159.97;;;;;;;17.47;100.00;102090.13;5093048;28;20453;-38
2023/08/20 02:32:13;;;;;;;169.17;161.43;;;;;;;17.47;100.00;102088.25;5091315;28;20436;-39
2023/08/20 02:34:40;;;;;;;167.83;159.40;;;;;;;17.51;100.00;102089.50;5091737;28;20548;-42
2023/08/20 02:37:08;;;;;;;186.73;173.13;;;;;;;17.49;100.00;102093.44;5092516;28;20498;-41
2023/08/20 02:39:37;;;;;;;165.60;157.80;;;;;;;17.51;100.00;102102.16;5091230;28;20468;-40
2023/08/20 02:42:05;;;;;;;177.50;168.43;;;;;;;17.52;100.00;102093.88;5091698;28;20500;-39
2023/08/20 02:44:32;;;;;;;171.50;164.30;;;;;;;17.54;100.00;102105.28;5091039;28;20469;-38
2023/08/20 02:47:00;;;;;;;178.53;170.83;;;;;;;17.53;100.00;102103.59;5090711;28;20514;-38
2023/08/20 02:49:28;;;;;;;174.50;167.00;;;;;;;17.50;100.00;102084.31;5089899;28;20425;-37
2023/08/20 02:51:55;;;;;;;179.30;171.70;;;;;;;17.46;100.00;102088.47;5090469;28;20433;-39
2023/08/20 02:54:23;;;;;;;182.10;174.43;;;;;;;17.40;100.00;102086.59;5090686;28;20560;-39
2023/08/20 02:56:52;;;;;;;173.60;166.30;;;;;;;17.34;100.00;102104.44;5090358;28;20448;-38
2023/08/20 02:59:20;;;;;;;184.13;175.43;;;;;;;17.27;100.00;102106.31;5091230;28;20482;-39
2023/08/20 03:01:48;;;;;;;179.80;172.70;;;;;;;17.22;100.00;102099.88;5091915;28;20491;-38
2023/08/20 03:04:16;;;;;;;179.43;172.47;;;;;;;17.13;100.00;102099.25;5091557;28;20548;-39
2023/08/20 03:06:44;;;;;;;165.53;158.87;;;;;;;17.08;100.00;102105.25;5092090;28;20449;-40
2023/08/20 03:09:12;;;;;;;165.83;159.53;;;;;;;17.03;100.00;102104.22;5092227;28;20435;-38
2023/08/20 03:11:39;;;;;;;168.83;161.47;;;;;;;17.00;100.00;102100.06;5091118;28;20520;-42
2023/08/20 03:14:08;;;;;;;175.67;167.43;;;;;;;16.97;100.00;102094.25;5090762;28;20902;-39
2023/08/20 03:16:36;;;;;;;173.40;165.90;;;;;;;16.93;100.00;102101.97;5090773;28;20456;-43
2023/08/20 03:19:05;;;;;;;178.80;170.30;;;;;;;16.90;100.00;102093.44;5091001;28;20440;-39
2023/08/20 03:21:32;;;;;;;166.57;159.10;;;;;;;16.88;100.00;102095.50;5092040;28;20451;-39
2023/08/20 03:24:00;;;;;;;170.33;162.83;;;;;;;16.85;100.00;102093.22;5090560;28;20453;-38
2023/08/20 03:26:28;;;;;;;167.97;161.03;;;;;;;16.86;100.00;102094.88;5091818;28;20429;-38
2023/08/20 03:28:55;;;;;;;169.00;161.87;;;;;;;16.85;100.00;102101.28;5091491;28;20946;-38
2023/08/20 03:31:24;;;;;;;166.17;159.27;;;;;;;16.87;100.00;102097.38;5089998;28;20429;-43
2023/08/20 03:33:52;;;;;;;169.37;161.53;;;;;;;16.88;100.00;102103.56;5090083;28;20561;-40
2023/08/20 03:36:20;;;;;;;175.50;167.40;;;;;;;16.90;100.00;102121.22;5089220;28;20476;-38
2023/08/20 03:38:47;;;;;;;167.60;159.80;;;;;;;16.92;100.00;102119.16;5089303;28;20425;-38
2023/08/20 03:41:15;;;;;;;163.83;157.20;;;;;;;16.95;100.00;102118.75;5090519;28;20451;-39
2023/08/20 03:43:43;;;;;;;164.50;156.80;;;;;;;16.97;100.00;102129.28;5091067;28;20543;-41
2023/08/20 03:46:10;;;;;;;169.90;162.57;;;;;;;16.99;100.00;102130.75;5089580;28;20585;-39
2023/08/20 03:48:39;;;;;;;157.87;151.07;;;;;;;17.05;100.00;102129.13;5090414;28;20451;-41
2023/08/20 03:51:07;;;;;;;165.47;158.30;;;;;;;17.11;100.00;102128.31;5089634;28;20433;-39
2023/08/20 03:53:35;;;;;;;166.97;159.57;;;;;;;17.16;100.00;102128.50;5087904;28;20954;-38
2023/08/20 03:56:03;;;;;;;162.70;154.90;;;;;;;17.22;100.00;102135.78;5090579;28;20524;-38
2023/08/20 03:58:31;;;;;;;176.67;169.03;;;;;;;17.28;100.00;102136.81;5089285;28;20449;-38
2023/08/20 04:00:58;;;;;;;175.60;167.60;;;;;;;17.33;100.00;102145.09;5088027;28;20768;-39
2023/08/20 04:03:26;;;;;;;175.97;168.00;;;;;;;17.39;100.00;102147.78;5089627;28;20476;-38
2023/08/20 04:05:55;;;;;;;175.47;167.23;;;;;;;17.42;100.00;102141.16;5090307;28;20429;-39
2023/08/20 04:08:22;;;;;;;183.30;173.10;;;;;;;17.46;100.00;102139.72;5089633;28;20445;-39
2023/08/20 04:10:50;;;;;;;172.00;163.33;;;;;;;17.49;100.00;102136.59;5088848;28;20478;-41
2023/08/20 04:13:18;;;;;;;176.97;167.53;;;;;;;17.52;100.00;102133.47;5088992;28;20461;-38
2023/08/20 04:15:46;;;;;;;168.20;157.70;;;;;;;17.56;100.00;102150.97;5086443;28;20526;-39
2023/08/20 04:18:14;;;;;;;173.67;160.43;;;;;;;17.58;100.00;102141.59;5089133;28;20453;-41
2023/08/20 04:20:42;;;;;;;173.57;164.27;;;;;;;17.64;100.00;102150.72;5089791;28;20425;-38
2023/08/20 04:23:11;;;;;;;177.60;165.30;;;;;;;17.69;100.00;102145.53;5089055;28;20486;-38
2023/08/20 04:25:40;;;;;;;171.30;162.40;;;;;;;17.73;100.00;102135.16;5089372;28;20441;-38
2023/08/20 04:28:07;;;;;;;171.33;162.37;;;;;;;17.78;100.00;102135.34;5094041;28;20544;-41
2023/08/20 04:30:35;;;;;;;164.03;156.20;;;;;;;17.82;100.00;102133.91;5094085;28;20432;-39
2023/08/20 04:33:04;;;;;;;167.33;159.70;;;;;;;17.85;100.00;102131.59;5093959;28;20520;-38
2023/08/20 04:35:31;;;;;;;187.77;169.87;;;;;;;17.89;100.00;102138.22;5093869;28;20506;-38
2023/08/20 04:37:59;;;;;;;170.63;159.53;;;;;;;17.93;100.00;102125.97;5092950;28;20445;-38
2023/08/20 04:40:28;;;;;;;164.40;154.83;;;;;;;17.98;100.00;102131.56;5093150;28;20429;-38
2023/08/20 04:42:56;;;;;;;171.27;163.33;;;;;;;18.02;100.00;102131.97;5093264;28;20433;-40
2023/08/20 04:45:24;;;;;;;168.50;159.40;;;;;;;18.06;100.00;102142.16;5092533;28;20525;-38
2023/08/20 04:47:52;;;;;;;179.87;167.77;;;;;;;18.09;100.00;102138.19;5093217;28;20445;-43
2023/08/20 04:50:19;;;;;;;174.90;162.90;;;;;;;18.11;100.00;102139.63;5093481;28;20440;-39
2023/08/20 04:52:48;;;;;;;184.13;169.53;;;;;;;18.09;100.00;102135.50;5092304;28;20473;-39
2023/08/20 04:55:16;;;;;;;173.80;164.87;;;;;;;18.11;100.00;102120.72;5092658;28;20530;-41
2023/08/20 04:57:45;;;;;;;178.67;168.60;;;;;;;18.11;100.00;102117.19;5093411;28;20451;-41
2023/08/20 05:00:13;;;;;;;173.37;164.53;;;;;;;18.15;100.00;102121.97;5092074;28;20459;-39
2023/08/20 05:02:41;;;;;;;172.13;163.37;;;;;;;18.20;100.00;102124.03;5094586;28;20457;-41
2023/08/20 05:05:09;;;;;;;182.27;170.63;;;;;;;18.21;100.00;102123.00;5070779;28;20489;-43
2023/08/20 05:07:37;;;;;;;178.13;170.50;;;;;;;18.20;100.00;102108.66;5063150;28;20457;-41
2023/08/20 05:10:05;;;;;;;189.50;176.40;;;;;;;18.28;100.00;102112.97;5062312;28;20816;-39
2023/08/20 05:12:33;;;;;;;183.83;176.13;;;;;;;18.33;100.00;102112.34;5072014;28;20520;-38
2023/08/20 05:15:02;;;;;;;174.87;166.47;;;;;;;18.38;100.00;102120.63;5071132;28;21193;-38
2023/08/20 05:17:30;;;;;;;178.77;171.20;;;;;;;18.45;100.00;102122.28;5066160;28;20513;-41
2023/08/20 05:19:58;;;;;;;188.27;179.67;;;;;;;18.51;100.00;102134.13;5071993;28;20999;-38
2023/08/20 05:22:26;;;;;;;177.50;170.67;;;;;;;18.54;100.00;102133.69;5072264;28;20992;-41
2023/08/20 05:24:53;;;;;;;176.57;168.97;;;;;;;18.64;100.00;102142.13;5071371;28;20480;-38
2023/08/20 05:27:21;;;;;;;197.33;183.73;;;;;;;18.69;100.00;102139.63;5072336;28;20446;-38
2023/08/20 05:29:48;;;;;;;194.70;187.17;;;;;;;18.75;100.00;102136.06;5071872;28;20440;-41
2023/08/20 05:32:17;;;;;;;190.00;181.73;;;;;;;18.78;100.00;102146.44;5072139;28;20521;-38
2023/08/20 05:34:45;;;;;;;190.17;182.00;;;;;;;18.86;100.00;102150.75;5072065;28;20462;-41
2023/08/20 05:37:13;;;;;;;181.83;174.73;;;;;;;18.98;100.00;102149.00;5072554;28;20460;-41
2023/08/20 05:39:42;;;;;;;174.30;166.37;;;;;;;19.06;100.00;102151.44;5056232;28;20481;-38
2023/08/20 05:42:10;;;;;;;184.83;177.77;;;;;;;19.10;100.00;102153.50;5051664;28;20864;-38
2023/08/20 05:44:37;;;;;;;197.93;188.60;;;;;;;19.07;100.00;102153.13;5065353;28;20457;-42
2023/08/20 05:47:06;;;;;;;194.73;186.60;;;;;;;19.13;100.00;102150.38;5071780;28;20453;-39
2023/08/20 05:49:35;;;;;;;176.17;169.60;;;;;;;19.24;100.00;102141.53;5071462;28;20426;-43
2023/08/20 05:52:04;;;;;;;168.00;161.50;;;;;;;19.29;100.00;102144.41;5069393;28;20445;-40
2023/08/20 05:54:31;;;;;;;179.00;170.10;;;;;;;19.38;100.00;102136.88;5070658;28;20468;-38
2023/08/20 05:56:59;;;;;;;171.00;165.17;;;;;;;19.45;100.00;102140.38;5070711;28;20481;-39
2023/08/20 05:59:27;;;;;;;168.53;161.63;;;;;;;19.57;100.00;102148.59;5070200;28;21256;-38
2023/08/20 06:01:55;;;;;;;161.63;155.53;;;;;;;19.69;100.00;102152.22;5052992;28;20901;-40
2023/08/20 06:04:23;;;;;;;159.43;153.50;;;;;;;19.82;100.00;102152.09;5050912;28;20455;-42
2023/08/20 06:06:52;;;;;;;156.73;148.03;;;;;;;19.99;100.00;102157.75;5051258;28;20490;-44
2023/08/20 06:09:20;;;;;;;138.47;133.33;;;;;;;20.18;100.00;102154.84;5051553;28;20526;-38
2023/08/20 06:11:48;;;;;;;130.77;125.97;;;;;;;20.37;100.00;102145.66;5050783;28;20462;-41
2023/08/20 06:14:16;;;;;;;127.93;123.10;;;;;;;20.49;100.00;102145.72;5049448;28;21005;-39
2023/08/20 06:16:44;;;;;;;116.03;111.20;;;;;;;20.58;100.00;102140.84;5049071;28;20498;-40
2023/08/20 06:19:11;;;;;;;108.80;103.40;;;;;;;20.64;100.00;102139.94;5068373;28;20773;-40
2023/08/20 06:21:39;;;;;;;102.70;98.90;;;;;;;20.76;100.00;102138.91;5068433;28;20446;-39
2023/08/20 06:24:08;;;;;;;88.27;84.53;;;;;;;20.83;100.00;102145.06;5059690;28;21069;-38
2023/08/20 06:26:36;;;;;;;85.90;81.70;;;;;;;20.89;100.00;102141.44;5063417;28;20488;-40
2023/08/20 06:29:04;;;;;;;81.40;77.80;;;;;;;20.92;100.00;102134.72;5068542;28;20430;-38
2023/08/20 06:31:32;;;;;;;79.20;74.63;;;;;;;21.01;100.00;102133.34;5050746;28;20958;-41
2023/08/20 06:33:59;;;;;;;71.03;67.43;;;;;;;21.05;100.00;102136.41;5049829;28;20454;-41
2023/08/20 06:36:27;;;;;;;61.47;57.53;;;;;;;21.04;100.00;102135.56;5051703;28;20520;-39
2023/08/20 06:38:55;;;;;;;65.07;61.23;;;;;;;21.05;100.00;102137.25;5066963;28;20449;-42
2023/08/20 06:41:24;;;;;;;59.47;55.93;;;;;;;21.06;100.00;102143.47;5070944;28;20462;-39
2023/08/20 06:43:52;;;;;;;57.50;54.03;;;;;;;21.02;100.00;102136.88;5069929;28;20472;-40
2023/08/20 06:46:19;;;;;;;56.23;52.97;;;;;;;21.00;100.00;102142.50;5070953;28;20483;-38
2023/08/20 06:48:47;;;;;;;53.80;50.60;;;;;;;21.11;100.00;102158.03;5069704;28;20516;-38
2023/08/20 06:51:16;;;;;;;62.93;58.10;;;;;;;21.15;100.00;102153.78;5058633;28;20431;-38
2023/08/20 06:53:43;;;;;;;62.27;58.10;;;;;;;21.17;100.00;102170.69;5049304;28;20464;-40
2023/08/20 06:56:11;;;;;;;59.03;54.87;;;;;;;21.17;100.00;102165.25;5068323;28;20472;-38
2023/08/20 06:58:42;;;;;;;59.93;55.60;;;;;;;21.27;100.00;102165.50;5069145;28;20533;-39
2023/08/20 07:01:12;;;;;;;62.57;57.87;;;;;;;21.32;100.00;102167.53;5053457;28;20435;-38
2023/08/20 07:03:41;;;;;;;56.00;52.43;;;;;;;21.34;100.00;102179.78;5049899;28;20454;-41
2023/08/20 07:06:10;;;;;;;62.90;58.33;;;;;;;21.42;100.00;102186.75;5051124;28;20441;-42
2023/08/20 07:08:39;;;;;;;58.87;55.10;;;;;;;21.57;100.00;102189.03;5050003;28;20479;-39
2023/08/20 07:11:07;;;;;;;58.93;54.60;;;;;;;21.52;100.00;102182.44;5050475;28;20427;-39
2023/08/20 07:13:35;;;;;;;62.13;58.10;;;;;;;21.45;100.00;102178.16;5049639;28;20458;-39
2023/08/20 07:16:04;;;;;;;63.83;59.60;;;;;;;21.54;100.00;102179.47;5050911;28;20905;-40
2023/08/20 07:18:32;;;;;;;64.27;60.03;;;;;;;21.60;100.00;102181.25;5062020;28;20499;-39
2023/08/20 07:21:00;;;;;;;67.20;62.83;;;;;;;21.78;100.00;102174.88;5070194;28;20954;-39
2023/08/20 07:23:28;;;;;;;66.57;62.20;;;;;;;21.74;100.00;102187.28;5055643;28;20458;-41
2023/08/20 07:26:05;;;;;;;64.63;60.33;;;;;;;21.85;100.00;102190.00;5068054;28;20521;-38
2023/08/20 07:31:16;;;;;;;52.87;49.47;;;;;;;22.90;100.00;102189.84;5070024;28;20441;-41
2023/08/20 07:33:47;;;;;;;59.80;55.90;;;;;;;23.58;100.00;102181.53;5069440;28;20458;-39
2023/08/20 07:36:15;;;;;;;55.20;51.90;;;;;;;24.59;100.00;102170.16;5069727;28;20469;-41
2023/08/20 07:38:43;;;;;;;51.70;48.30;;;;;;;24.84;100.00;102158.72;5069958;28;20495;-39
2023/08/20 07:41:11;;;;;;;48.17;45.17;;;;;;;25.15;100.00;102154.38;5069596;28;20433;-41
2023/08/20 07:43:40;;;;;;;48.47;45.60;;;;;;;25.61;100.00;102144.69;5067774;28;20542;-39
2023/08/20 07:46:09;;;;;;;45.67;43.27;;;;;;;26.05;100.00;102137.00;5070401;28;20464;-39
2023/08/20 07:48:38;;;;;;;44.80;42.13;;;;;;;26.78;100.00;102142.22;5070024;28;20488;-42
2023/08/20 07:51:06;;;;;;;43.50;41.20;;;;;;;27.00;100.00;102135.72;5058668;28;20789;-40
2023/08/20 07:53:34;;;;;;;47.10;44.20;;;;;;;27.15;100.00;102136.53;5048314;28;20960;-41
2023/08/20 07:56:02;;;;;;;48.40;45.47;;;;;;;26.67;100.00;102129.59;5055324;28;20535;-40
2023/08/20 07:58:30;;;;;;;47.27;44.43;;;;;;;26.42;100.00;102132.28;5069475;28;20454;-39
2023/08/20 08:00:58;;;;;;;40.27;37.87;;;;;;;26.05;100.00;102131.53;5059214;28;20797;-41
2023/08/20 08:03:27;;;;;;;39.63;37.63;;;;;;;25.74;100.00;102134.13;5048441;28;20441;-39
2023/08/20 08:05:56;;;;;;;38.47;36.20;;;;;;;25.55;100.00;102132.91;5049875;28;20522;-39
2023/08/20 08:08:24;;;;;;;39.70;37.40;;;;;;;25.85;100.00;102141.28;5049576;28;20455;-39
2023/08/20 08:10:52;;;;;;;38.53;35.93;;;;;;;26.17;100.00;102151.31;5049433;28;20517;-39
2023/08/20 08:13:21;;;;;;;37.27;35.17;;;;;;;25.93;100.00;102150.06;5048054;28;20998;-39
2023/08/20 08:15:50;;;;;;;35.83;33.53;;;;;;;26.09;100.00;102158.09;5068320;28;20469;-39
2023/08/20 08:18:19;;;;;;;39.57;36.97;;;;;;;25.93;100.00;102153.63;5068970;28;20480;-39
2023/08/20 08:20:47;;;;;;;36.27;34.17;;;;;;;26.14;100.00;102165.47;5069129;28;20472;-39
2023/08/20 08:23:17;;;;;;;35.97;33.87;;;;;;;26.49;100.00;102154.75;5062772;28;20527;-41
2023/08/20 08:25:44;;;;;;;35.80;33.80;;;;;;;26.04;100.00;102154.50;5057658;28;20426;-39
2023/08/20 08:28:12;;;;;;;36.57;34.67;;;;;;;26.40;100.00;102153.63;5048115;28;20534;-41
2023/08/20 08:30:40;;;;;;;34.43;32.73;;;;;;;26.19;100.00;102149.16;5047664;28;21007;-41
2023/08/20 08:33:08;;;;;;;31.87;30.10;;;;;;;25.80;100.00;102154.09;5057542;28;20439;-43
2023/08/20 08:35:36;;;;;;;31.67;29.87;;;;;;;26.19;100.00;102149.97;5077332;28;20445;-40
2023/08/20 08:38:04;;;;;;;30.60;28.73;;;;;;;26.18;100.00;102155.69;5079843;28;20882;-43
2023/08/20 08:40:34;;;;;;;30.10;28.40;;;;;;;26.09;100.00;102155.34;5078684;28;20433;-40
2023/08/20 08:43:03;;;;;;;29.03;27.13;;;;;;;26.10;100.00;102153.44;5079901;28;20456;-40
2023/08/20 08:45:31;;;;;;;28.47;26.73;;;;;;;26.06;100.00;102155.88;5063645;28;20455;-40
2023/08/20 08:48:03;;;;;;;29.47;27.87;;;;;;;26.51;100.00;102152.56;5060522;28;20447;-38
2023/08/20 08:50:32;;;;;;;28.17;26.70;;;;;;;26.84;100.00;102141.19;5066104;28;20427;-38
2023/08/20 08:53:00;;;;;;;29.17;27.33;;;;;;;26.74;100.00;102146.59;5064881;28;20442;-41
2023/08/20 08:55:28;;;;;;;26.77;25.17;;;;;;;26.90;100.00;102145.56;5079231;28;20519;-40
2023/08/20 08:57:57;;;;;;;27.00;25.23;;;;;;;27.06;100.00;102140.91;5080087;28;20473;-44
2023/08/20 09:00:25;;;;;;;23.60;22.30;;;;;;;27.13;100.00;102137.91;5078855;28;20533;-46
2023/08/20 09:02:52;;;;;;;21.63;20.43;;;;;;;26.98;100.00;102135.97;5076201;28;20506;-43
2023/08/20 09:05:20;;;;;;;23.27;21.67;;;;;;;26.99;100.00;102143.09;5096424;28;20495;-41
2023/08/20 09:07:55;;;;;;;19.43;18.03;;;;;;;26.93;100.00;102138.72;5091236;28;20472;-41
2023/08/20 09:10:23;;;;;;;20.50;19.37;;;;;;;26.93;100.00;102144.19;5091151;28;20516;-41
2023/08/20 09:12:51;;;;;;;21.07;19.77;;;;;;;26.84;100.00;102132.13;5090253;28;20539;-40
2023/08/20 09:15:20;;;;;;;19.17;17.87;;;;;;;26.67;100.00;102137.00;5087275;28;20466;-41
2023/08/20 09:17:48;;;;;;;19.43;18.17;;;;;;;26.65;100.00;102139.16;5086333;28;20474;-44
2023/08/20 09:20:15;;;;;;;20.27;18.63;;;;;;;26.76;100.00;102135.38;5085686;28;20481;-41
2023/08/20 09:22:49;;;;;;;16.70;15.57;;;;;;;26.56;100.00;102141.63;5100207;28;20433;-41
2023/08/20 09:25:17;;;;;;;18.33;16.90;;;;;;;26.40;100.00;102139.94;5081735;28;20453;-40
2023/08/20 09:27:45;;;;;;;16.23;15.07;;;;;;;26.37;100.00;102132.28;5081153;28;20899;-40
2023/08/20 09:30:21;;;;;;;16.90;15.73;;;;;;;25.97;100.00;102141.06;5079457;28;20461;-40
2023/08/20 09:33:04;;;;;;;17.00;16.10;;;;;;;25.64;100.00;102141.41;5079806;28;21172;-42
2023/08/20 09:35:32;;;;;;;17.40;16.07;;;;;;;25.81;100.00;102145.63;5079930;28;21024;-40
2023/08/20 09:38:01;;;;;;;15.87;14.27;;;;;;;26.13;100.00;102141.97;5062784;28;20540;-41
2023/08/20 09:40:28;;;;;;;16.07;14.70;;;;;;;26.30;100.00;102142.63;5059015;28;20453;-40
2023/08/20 09:42:57;;;;;;;13.40;12.40;;;;;;;26.05;100.00;102137.00;5060111;28;20449;-40
2023/08/20 09:45:29;;;;;;;12.73;11.63;;;;;;;26.34;100.00;102144.53;5062191;28;20466;-40
2023/08/20 09:48:00;;;;;;;11.00;10.30;;;;;;;26.64;100.00;102143.03;5080018;28;20456;-41
2023/08/20 09:50:28;;;;;;;12.00;11.00;;;;;;;26.59;100.00;102149.28;5079689;28;20434;-41
2023/08/20 09:53:02;;;;;;;14.13;10.63;;;;;;;26.92;100.00;102140.63;5079889;28;20474;-41
2023/08/20 09:55:33;;;;;;;9.73;9.13;;;;;;;27.40;100.00;102143.94;5081176;28;20500;-40
2023/08/20 09:58:03;;;;;;;9.20;8.70;;;;;;;27.94;100.00;102133.16;5080200;28;20706;-40
2023/08/20 10:00:33;;;;;;;9.73;8.87;;;;;;;28.36;100.00;102132.75;5080585;28;20437;-42
2023/08/20 10:03:01;;;;;;;9.33;8.73;;;;;;;28.25;99.45;102132.00;5080390;28;20835;-41
2023/08/20 10:05:29;;;;;;;9.03;8.27;;;;;;;27.86;96.98;102133.75;5098958;28;20485;-40
2023/08/20 10:07:59;;;;;;;8.23;7.53;;;;;;;27.72;98.26;102135.41;5101202;28;20540;-42
2023/08/20 10:10:27;;;;;;;8.80;8.10;;;;;;;27.46;94.94;102140.94;5099244;28;20421;-43
2023/08/20 10:12:56;;;;;;;8.13;7.63;;;;;;;27.48;97.67;102140.66;5100836;28;20423;-43
2023/08/20 10:15:26;;;;;;;9.10;8.40;;;;;;;27.85;100.00;102137.59;5099323;28;20468;-41
2023/08/20 10:17:58;;;;;;;8.53;7.73;;;;;;;27.99;97.75;102125.75;5100333;28;20479;-40
2023/08/20 10:20:30;;;;;;;7.77;7.27;;;;;;;28.21;100.00;102125.44;5101083;28;20490;-40
2023/08/20 10:23:02;;;;;;;10.53;8.00;;;;;;;28.27;94.83;102120.72;5099925;28;20459;-43
2023/08/20 10:25:30;;;;;;;7.83;7.07;;;;;;;27.85;96.75;102129.34;5100139;28;20477;-40
2023/08/20 10:28:13;;;;;;;6.57;6.07;;;;;;;27.45;94.79;102136.56;5099731;28;20449;-41
2023/08/20 10:31:07;;;;;;;7.80;7.13;;;;;;;27.30;95.93;102124.78;5098175;28;20452;-41
2023/08/20 10:33:37;;;;;;;7.13;6.53;;;;;;;27.56;99.11;102129.16;5100219;28;20537;-42
2023/08/20 10:36:09;;;;;;;6.57;6.13;;;;;;;27.89;93.73;102125.78;5099824;28;21056;-42
2023/08/20 10:38:38;;;;;;;5.93;5.53;;;;;;;27.86;92.23;102120.88;5099666;28;20901;-43
2023/08/20 10:41:09;;;;;;;6.90;5.93;;;;;;;27.78;92.30;102128.81;5099280;28;21070;-42
2023/08/20 10:43:39;;;;;;;6.70;5.50;;;;;;;27.43;92.90;102129.72;5098688;28;20461;-41
2023/08/20 10:46:08;;;;;;;6.27;5.63;;;;;;;27.09;86.26;102126.66;5098713;28;20428;-41
2023/08/20 10:48:40;;;;;;;5.73;5.33;;;;;;;26.75;92.00;102129.09;5099500;28;20441;-41
2023/08/20 10:51:13;;;;;;;6.10;5.70;;;;;;;26.92;97.48;102131.59;5097255;28;20475;-42
2023/08/20 10:53:42;;;;;;;6.30;5.80;;;;;;;27.27;96.46;102134.34;5098331;28;20514;-41
2023/08/20 10:56:13;;;;;;;5.93;5.40;;;;;;;27.09;97.52;102126.66;5100112;28;20433;-41
2023/08/20 10:58:45;;;;;;;5.97;5.53;;;;;;;26.64;98.35;102130.13;5097675;28;20859;-44
2023/08/20 11:01:15;;;;;;;5.10;4.70;;;;;;;26.97;97.89;102136.28;5098075;28;20806;-40
2023/08/20 11:03:45;;;;;;;5.60;5.10;;;;;;;27.17;93.23;102133.53;5099153;28;20464;-41
2023/08/20 11:06:13;;;;;;;5.80;5.30;;;;;;;27.38;90.42;102135.16;5098838;28;20459;-42